Time;durP1;ratioP1;P1;durP2;ratioP2;P2;SDS_P1;SDS_P2;PMS_P1;PMS_P2;Temp;Humidity;BMP_temperature;BMP_pressure;BME280_temperature;BME280_humidity;BME280_pressure;Samples;Min_cycle;Max_cycle;Signal;HPM_P1;HPM_P2
2022/11/24 00:01:15;;;;;;;7.20;3.00;;;7.00;99.90;;;;;;5033849;28;20241;-62
2022/11/24 00:03:43;;;;;;;7.40;2.90;;;7.00;99.90;;;;;;5033672;28;20202;-61
2022/11/24 00:06:13;;;;;;;3.90;2.33;;;7.00;99.90;;;;;;5034103;28;20242;-62
2022/11/24 00:08:42;;;;;;;2.88;1.98;;;6.90;99.90;;;;;;5034180;28;20547;-60
2022/11/24 00:11:12;;;;;;;5.95;2.78;;;6.90;99.90;;;;;;5033832;28;20202;-62
2022/11/24 00:13:39;;;;;;;2.78;2.55;;;6.90;99.90;;;;;;5034073;28;20659;-61
2022/11/24 00:16:08;;;;;;;6.10;2.60;;;6.90;99.90;;;;;;5033388;28;20218;-62
2022/11/24 00:18:35;;;;;;;5.35;2.35;;;6.80;99.90;;;;;;5033851;28;20218;-61
2022/11/24 00:21:01;;;;;;;2.70;2.40;;;6.80;99.90;;;;;;5033269;28;20662;-61
2022/11/24 00:23:29;;;;;;;5.25;2.50;;;6.80;99.90;;;;;;5033552;28;20226;-61
2022/11/24 00:26:03;;;;;;;5.97;2.78;;;6.80;99.90;;;;;;5035123;28;20220;-62
2022/11/24 00:28:30;;;;;;;7.07;2.38;;;6.70;99.90;;;;;;5039295;28;20191;-62
2022/11/24 00:30:56;;;;;;;4.75;2.35;;;6.70;99.90;;;;;;5038288;28;20210;-62
2022/11/24 00:33:23;;;;;;;4.50;2.80;;;6.70;99.90;;;;;;5038580;28;20230;-61
2022/11/24 00:35:54;;;;;;;5.78;2.55;;;6.60;99.90;;;;;;5037857;28;20233;-62
2022/11/24 00:38:21;;;;;;;7.20;3.10;;;6.60;99.90;;;;;;5037676;28;20634;-61
2022/11/24 00:40:49;;;;;;;5.43;2.80;;;6.60;99.90;;;;;;5038049;28;20214;-60
2022/11/24 00:43:16;;;;;;;6.43;2.78;;;6.60;99.90;;;;;;5047906;28;20568;-61
2022/11/24 00:45:43;;;;;;;7.65;2.40;;;6.50;99.90;;;;;;5046870;28;20202;-61
2022/11/24 00:48:10;;;;;;;6.35;2.88;;;6.50;99.90;;;;;;5038106;28;20222;-62
2022/11/24 00:50:37;;;;;;;2.35;2.00;;;6.50;99.90;;;;;;5036857;28;20209;-63
2022/11/24 00:53:03;;;;;;;6.68;3.15;;;6.50;99.90;;;;;;5037831;28;20217;-61
2022/11/24 00:55:30;;;;;;;3.25;2.50;;;6.40;99.90;;;;;;5039563;28;20226;-61
2022/11/24 00:57:58;;;;;;;3.78;2.72;;;6.40;99.90;;;;;;5039504;28;20222;-63
2022/11/24 01:00:25;;;;;;;4.43;3.03;;;6.40;99.90;;;;;;5040019;28;20232;-60
2022/11/24 01:02:52;;;;;;;6.68;2.60;;;6.40;99.90;;;;;;5041911;28;20206;-62
2022/11/24 01:05:19;;;;;;;3.10;2.20;;;6.30;99.90;;;;;;5042087;28;20619;-61
2022/11/24 01:07:45;;;;;;;5.20;2.70;;;6.30;99.90;;;;;;5037349;28;20237;-62
2022/11/24 01:10:12;;;;;;;4.30;2.53;;;6.30;99.90;;;;;;5037415;28;20202;-61
2022/11/24 01:12:39;;;;;;;3.45;2.53;;;6.30;99.90;;;;;;5037196;28;20211;-61
2022/11/24 01:15:08;;;;;;;7.03;2.42;;;6.30;99.90;;;;;;5036740;28;20698;-62
2022/11/24 01:17:35;;;;;;;5.25;2.95;;;6.30;99.90;;;;;;5036921;28;20230;-62
2022/11/24 01:20:01;;;;;;;4.55;2.75;;;6.40;99.90;;;;;;5037070;28;20227;-60
2022/11/24 01:22:28;;;;;;;8.43;3.35;;;6.40;99.90;;;;;;5036804;28;20205;-61
2022/11/24 01:24:55;;;;;;;4.38;2.75;;;6.40;99.90;;;;;;5036958;28;20207;-62
2022/11/24 01:27:21;;;;;;;8.45;3.78;;;6.40;99.90;;;;;;5036669;28;20226;-61
2022/11/24 01:29:48;;;;;;;6.25;3.00;;;6.40;99.90;;;;;;5036501;28;20229;-62
2022/11/24 01:32:16;;;;;;;7.00;3.10;;;6.40;99.90;;;;;;5036736;28;20218;-60
2022/11/24 01:34:43;;;;;;;4.65;3.10;;;6.40;99.90;;;;;;5036502;28;20225;-62
2022/11/24 01:37:10;;;;;;;5.55;2.78;;;6.30;99.90;;;;;;5035526;28;20726;-61
2022/11/24 01:39:37;;;;;;;7.32;2.80;;;6.30;99.90;;;;;;5036490;28;20202;-61
2022/11/24 01:42:04;;;;;;;4.35;3.53;;;6.30;99.90;;;;;;5036468;28;20206;-61
2022/11/24 01:44:31;;;;;;;3.20;2.45;;;6.30;99.90;;;;;;5036364;28;20202;-61
2022/11/24 01:47:00;;;;;;;5.28;3.88;;;6.20;99.90;;;;;;5035790;28;20222;-61
2022/11/24 01:49:36;;;;;;;4.88;2.78;;;6.20;99.90;;;;;;5035789;28;20210;-61
2022/11/24 01:52:08;;;;;;;7.43;3.20;;;6.10;99.90;;;;;;5035620;28;20190;-61
2022/11/24 01:54:38;;;;;;;5.78;3.20;;;6.10;99.90;;;;;;5035792;28;20215;-61
2022/11/24 01:57:10;;;;;;;5.32;3.38;;;6.10;99.90;;;;;;5035468;28;20218;-61
2022/11/24 01:59:37;;;;;;;7.93;3.63;;;6.10;99.90;;;;;;5035777;28;20182;-61
2022/11/24 02:02:04;;;;;;;7.00;3.40;;;6.10;99.90;;;;;;5036018;28;20215;-61
2022/11/24 02:04:34;;;;;;;8.77;4.32;;;6.10;99.90;;;;;;5036028;28;20209;-61
2022/11/24 02:07:03;;;;;;;6.22;3.13;;;6.10;99.90;;;;;;5035593;28;20222;-61
2022/11/24 02:09:34;;;;;;;5.88;3.83;;;6.20;99.90;;;;;;5035440;28;20674;-61
2022/11/24 02:12:02;;;;;;;5.90;3.80;;;6.20;99.90;;;;;;5035503;28;20190;-61
2022/11/24 02:14:29;;;;;;;3.40;2.70;;;6.20;99.90;;;;;;5035870;28;20198;-62
2022/11/24 02:16:56;;;;;;;6.15;3.65;;;6.30;99.90;;;;;;5035366;28;20229;-62
2022/11/24 02:19:37;;;;;;;7.78;4.15;;;6.40;99.90;;;;;;5035450;28;20203;-62
2022/11/24 02:22:04;;;;;;;5.20;2.90;;;6.40;99.90;;;;;;5035635;28;20190;-61
2022/11/24 02:24:39;;;;;;;4.10;3.70;;;6.50;99.90;;;;;;5034881;28;20206;-61
2022/11/24 02:27:07;;;;;;;7.28;3.90;;;6.50;99.90;;;;;;5034834;28;20756;-62
2022/11/24 02:29:34;;;;;;;8.05;4.10;;;6.50;99.90;;;;;;5035060;28;20202;-61
2022/11/24 02:32:04;;;;;;;3.95;2.83;;;6.60;99.90;;;;;;5035463;28;20212;-61
2022/11/24 02:34:31;;;;;;;4.70;2.83;;;6.60;99.90;;;;;;5035545;28;20187;-61
2022/11/24 02:36:58;;;;;;;7.72;3.20;;;6.60;99.90;;;;;;5035372;28;20238;-61
2022/11/24 02:39:25;;;;;;;7.20;3.60;;;6.60;99.90;;;;;;5038278;28;20213;-61
2022/11/24 02:41:56;;;;;;;4.15;2.85;;;6.60;99.90;;;;;;5042380;28;20202;-62
2022/11/24 02:44:27;;;;;;;8.00;3.85;;;6.70;99.90;;;;;;5038037;28;20209;-62
2022/11/24 02:47:02;;;;;;;6.90;2.80;;;6.70;99.90;;;;;;5035696;28;20706;-62
2022/11/24 02:49:29;;;;;;;4.20;3.25;;;6.70;99.90;;;;;;5034296;28;20187;-62
2022/11/24 02:51:56;;;;;;;12.57;3.83;;;6.80;99.90;;;;;;5035109;28;20264;-61
2022/11/24 02:54:23;;;;;;;5.28;3.35;;;6.80;99.90;;;;;;5035246;28;20252;-62
2022/11/24 02:56:50;;;;;;;4.57;3.20;;;6.80;99.90;;;;;;5034755;28;20230;-61
2022/11/24 02:59:17;;;;;;;4.63;2.75;;;6.90;99.90;;;;;;5034348;28;20214;-62
2022/11/24 03:01:45;;;;;;;3.53;2.97;;;6.90;99.90;;;;;;5034732;28;20198;-61
2022/11/24 03:04:12;;;;;;;5.70;3.17;;;6.90;99.90;;;;;;5034665;28;20206;-61
2022/11/24 03:06:38;;;;;;;6.53;3.20;;;6.90;99.90;;;;;;5034225;28;20560;-60
2022/11/24 03:09:06;;;;;;;4.53;2.75;;;7.00;99.90;;;;;;5034493;28;20206;-61
2022/11/24 03:11:32;;;;;;;8.15;2.92;;;7.00;99.90;;;;;;5034296;28;20203;-61
2022/11/24 03:13:59;;;;;;;4.40;3.33;;;7.00;99.90;;;;;;5035022;28;20206;-61
2022/11/24 03:16:26;;;;;;;8.20;3.50;;;7.10;99.90;;;;;;5035932;28;20222;-61
2022/11/24 03:18:54;;;;;;;5.88;3.40;;;7.10;99.90;;;;;;5038827;28;20206;-62
2022/11/24 03:21:21;;;;;;;4.35;3.20;;;7.10;99.90;;;;;;5037998;28;20203;-60
2022/11/24 03:23:47;;;;;;;5.60;3.40;;;7.10;99.90;;;;;;5036742;28;20198;-61
2022/11/24 03:26:16;;;;;;;4.55;3.30;;;7.20;99.90;;;;;;5035529;28;20221;-63
2022/11/24 03:28:43;;;;;;;8.75;3.38;;;7.20;99.90;;;;;;5035281;28;20206;-61
2022/11/24 03:31:11;;;;;;;5.25;3.47;;;7.20;99.90;;;;;;5035680;28;20202;-62
2022/11/24 03:33:38;;;;;;;4.75;3.30;;;7.20;99.90;;;;;;5035895;28;20309;-62
2022/11/24 03:36:08;;;;;;;4.80;3.30;;;7.20;99.90;;;;;;5034667;28;20215;-61
2022/11/24 03:38:35;;;;;;;8.43;3.17;;;7.20;99.90;;;;;;5034199;28;20190;-61
2022/11/24 03:41:02;;;;;;;4.50;3.67;;;7.20;99.90;;;;;;5034535;28;20198;-61
2022/11/24 03:43:29;;;;;;;7.78;3.05;;;7.20;99.90;;;;;;5034849;28;20210;-61
2022/11/24 03:45:55;;;;;;;3.53;2.50;;;7.30;99.90;;;;;;5034990;28;20202;-62
2022/11/24 03:48:22;;;;;;;3.33;2.60;;;7.30;99.90;;;;;;5035285;28;20206;-61
2022/11/24 03:50:54;;;;;;;4.38;3.10;;;7.30;99.90;;;;;;5034085;28;20205;-62
2022/11/24 03:53:24;;;;;;;5.10;3.28;;;7.30;99.90;;;;;;5034374;28;20244;-61
2022/11/24 03:55:51;;;;;;;6.95;3.20;;;7.30;99.90;;;;;;5034036;28;20222;-61
2022/11/24 03:58:18;;;;;;;8.52;3.47;;;7.30;99.90;;;;;;5033513;28;20207;-61
2022/11/24 04:00:45;;;;;;;8.95;3.05;;;7.30;99.90;;;;;;5033057;28;20207;-62
2022/11/24 04:03:12;;;;;;;6.82;3.85;;;7.30;99.90;;;;;;5033741;28;20202;-62
2022/11/24 04:05:38;;;;;;;8.02;3.63;;;7.20;99.90;;;;;;5033801;28;20277;-62
2022/11/24 04:10:39;;;;;;;8.35;3.20;;;7.20;99.90;;;;;;5091361;27;20611;-62
2022/11/24 04:13:14;;;;;;;4.10;3.28;;;7.20;99.90;;;;;;5091477;28;20205;-61
2022/11/24 04:15:42;;;;;;;8.20;3.75;;;7.10;99.90;;;;;;5091503;28;20548;-61
2022/11/24 04:18:09;;;;;;;5.50;3.30;;;7.10;99.90;;;;;;5091205;28;20247;-61
2022/11/24 04:20:36;;;;;;;6.88;4.30;;;7.10;99.90;;;;;;5092372;28;20200;-62
2022/11/24 04:23:03;;;;;;;6.25;3.58;;;7.10;99.90;;;;;;5111478;22;20215;-60
2022/11/24 04:25:30;;;;;;;8.02;3.70;;;7.00;99.90;;;;;;5050124;28;20190;-60
2022/11/24 04:27:59;;;;;;;10.75;3.38;;;7.00;99.90;;;;;;5049906;28;20205;-59
2022/11/24 04:30:28;;;;;;;6.97;3.50;;;6.90;99.90;;;;;;5049997;28;20231;-59
2022/11/24 04:32:56;;;;;;;7.53;3.50;;;6.90;99.90;;;;;;5050083;28;20197;-60
2022/11/24 04:35:22;;;;;;;6.20;3.25;;;6.80;99.90;;;;;;5050275;28;20206;-60
2022/11/24 04:37:49;;;;;;;8.30;3.97;;;6.80;99.90;;;;;;5049999;28;20213;-60
2022/11/24 04:40:17;;;;;;;10.73;3.53;;;6.80;99.90;;;;;;5049531;28;20577;-59
2022/11/24 04:42:43;;;;;;;6.20;3.50;;;6.80;99.90;;;;;;5049462;28;20712;-60
2022/11/24 04:45:12;;;;;;;8.55;3.13;;;6.80;99.90;;;;;;5049767;28;20222;-60
2022/11/24 04:47:38;;;;;;;7.95;4.32;;;6.80;99.90;;;;;;5049529;28;20302;-60
2022/11/24 04:50:07;;;;;;;6.80;4.10;;;6.90;99.90;;;;;;5049605;28;20214;-60
2022/11/24 04:52:34;;;;;;;7.88;3.58;;;6.90;99.90;;;;;;5049330;28;20678;-60
2022/11/24 04:55:01;;;;;;;8.70;3.60;;;6.90;99.90;;;;;;5049109;28;20710;-60
2022/11/24 04:57:27;;;;;;;8.77;3.58;;;7.00;99.90;;;;;;5049549;28;20225;-59
2022/11/24 04:59:54;;;;;;;13.10;4.80;;;6.90;99.90;;;;;;5049663;28;20224;-60
2022/11/24 05:02:23;;;;;;;10.15;3.55;;;7.00;99.90;;;;;;5049307;28;20202;-59
2022/11/24 05:04:50;;;;;;;9.55;3.85;;;7.00;99.90;;;;;;5053327;28;20227;-59
2022/11/24 05:07:18;;;;;;;4.22;3.47;;;6.90;99.90;;;;;;5034248;28;20203;-60
2022/11/24 05:12:30;;;;;;;6.22;3.72;;;6.90;99.90;;;;;;5049635;28;20661;-60
2022/11/24 05:14:57;;;;;;;9.40;3.30;;;6.80;99.90;;;;;;5048936;28;20256;-62
2022/11/24 05:17:28;;;;;;;6.78;3.40;;;6.70;99.90;;;;;;5035697;28;20204;-60
2022/11/24 05:19:55;;;;;;;6.40;3.80;;;6.70;99.90;;;;;;5047848;28;20198;-60
2022/11/24 05:22:21;;;;;;;14.18;4.50;;;6.60;99.90;;;;;;5038223;28;20206;-59
2022/11/24 05:24:48;;;;;;;8.68;3.65;;;6.60;99.90;;;;;;5037738;28;20745;-61
2022/11/24 05:27:15;;;;;;;8.82;3.75;;;6.50;99.90;;;;;;5039245;28;20218;-59
2022/11/24 05:29:42;;;;;;;14.13;4.55;;;6.50;99.90;;;;;;5041273;28;20215;-58
2022/11/24 05:32:08;;;;;;;4.32;3.03;;;6.40;99.90;;;;;;5023872;28;20215;-58
2022/11/24 05:34:37;;;;;;;8.88;3.60;;;6.40;99.90;;;;;;5015650;28;20234;-58
2022/11/24 05:37:04;;;;;;;6.45;3.88;;;6.30;99.90;;;;;;5034304;28;20214;-59
2022/11/24 05:39:31;;;;;;;5.38;3.80;;;6.30;99.90;;;;;;5035225;28;20202;-59
2022/11/24 05:41:58;;;;;;;11.63;4.20;;;6.20;99.90;;;;;;5034954;28;20199;-59
2022/11/24 05:44:25;;;;;;;10.98;4.47;;;6.20;99.90;;;;;;5034983;28;20226;-59
2022/11/24 05:46:52;;;;;;;6.40;3.17;;;6.20;99.90;;;;;;5035373;28;20202;-59
2022/11/24 05:49:18;;;;;;;7.75;4.20;;;6.20;99.90;;;;;;5035071;28;20218;-59
2022/11/24 05:51:46;;;;;;;10.40;4.40;;;6.20;99.90;;;;;;5035445;28;20199;-59
2022/11/24 05:54:13;;;;;;;11.98;4.75;;;6.20;99.90;;;;;;5054972;28;20229;-59
2022/11/24 05:56:40;;;;;;;11.68;5.43;;;6.20;99.90;;;;;;5055805;28;20629;-58
2022/11/24 05:59:07;;;;;;;10.18;4.30;;;6.20;99.90;;;;;;5054829;28;20572;-59
2022/11/24 06:01:33;;;;;;;7.45;4.00;;;6.20;99.90;;;;;;5056302;28;20288;-59
2022/11/24 06:04:00;;;;;;;8.52;3.42;;;6.20;99.90;;;;;;5055444;28;20705;-59
2022/11/24 06:06:27;;;;;;;11.10;4.97;;;6.20;99.90;;;;;;5055073;28;20516;-59
2022/11/24 06:08:55;;;;;;;9.38;4.10;;;6.30;99.90;;;;;;5048904;28;20203;-59
2022/11/24 06:11:22;;;;;;;5.95;3.25;;;6.40;99.90;;;;;;5021918;28;20667;-60
2022/11/24 06:13:49;;;;;;;9.77;3.45;;;6.50;99.90;;;;;;5036498;28;20226;-61
2022/11/24 06:16:16;;;;;;;9.98;4.45;;;6.60;99.90;;;;;;5016937;28;20195;-60
2022/11/24 06:18:43;;;;;;;8.23;3.50;;;6.60;99.90;;;;;;5015940;28;20199;-59
2022/11/24 06:21:10;;;;;;;15.32;4.25;;;6.70;99.90;;;;;;5015899;28;20207;-59
2022/11/24 06:23:37;;;;;;;7.68;4.07;;;6.70;99.90;;;;;;5033498;28;20225;-60
2022/11/24 06:26:06;;;;;;;15.80;4.60;;;6.70;99.90;;;;;;5034987;28;20241;-61
2022/11/24 06:28:33;;;;;;;11.90;4.43;;;6.70;99.90;;;;;;5038151;28;20202;-59
2022/11/24 06:31:06;;;;;;;11.40;4.55;;;6.70;99.90;;;;;;5039776;28;20219;-58
2022/11/24 06:33:33;;;;;;;11.02;4.28;;;6.60;99.90;;;;;;5037245;28;20233;-60
2022/11/24 06:36:02;;;;;;;7.38;3.97;;;6.60;99.90;;;;;;5035116;28;20205;-60
2022/11/24 06:38:31;;;;;;;13.07;5.28;;;6.60;99.90;;;;;;5037328;28;20206;-62
2022/11/24 06:41:01;;;;;;;9.98;4.53;;;6.50;99.90;;;;;;5037828;28;20206;-60
2022/11/24 06:43:30;;;;;;;8.45;4.50;;;6.50;99.90;;;;;;5036388;28;20232;-60
2022/11/24 06:45:57;;;;;;;7.80;3.90;;;6.50;99.90;;;;;;5033616;28;20217;-61
2022/11/24 06:48:25;;;;;;;10.30;5.05;;;6.50;99.90;;;;;;5033490;28;20206;-60
2022/11/24 06:50:52;;;;;;;9.98;4.55;;;6.50;99.90;;;;;;5033459;28;20306;-61
2022/11/24 06:53:19;;;;;;;9.45;4.28;;;6.60;99.90;;;;;;5036405;28;20222;-59
2022/11/24 06:55:46;;;;;;;8.82;4.13;;;6.60;99.90;;;;;;5047392;28;20197;-61
2022/11/24 06:58:13;;;;;;;6.90;4.95;;;6.60;99.90;;;;;;5052814;28;20379;-59
2022/11/24 07:00:41;;;;;;;9.57;4.47;;;6.70;99.90;;;;;;5054369;28;20205;-60
2022/11/24 07:03:14;;;;;;;12.13;4.90;;;6.70;99.90;;;;;;5053928;28;20201;-59
2022/11/24 07:05:41;;;;;;;11.85;5.57;;;6.70;99.90;;;;;;5054216;28;20277;-59
2022/11/24 07:08:07;;;;;;;13.85;4.80;;;6.70;99.90;;;;;;5054191;28;20213;-60
2022/11/24 07:10:34;;;;;;;8.80;4.47;;;6.80;99.90;;;;;;5055080;28;20225;-61
2022/11/24 07:13:02;;;;;;;11.77;5.28;;;6.90;99.90;;;;;;5054395;28;20650;-60
2022/11/24 07:15:30;;;;;;;8.50;4.07;;;7.00;99.90;;;;;;5054112;28;20198;-60
2022/11/24 07:17:58;;;;;;;14.45;4.90;;;7.00;99.90;;;;;;5054121;28;20285;-61
2022/11/24 07:20:24;;;;;;;8.80;4.40;;;7.00;99.90;;;;;;5053507;28;20224;-60
2022/11/24 07:22:56;;;;;;;11.82;4.60;;;7.10;99.90;;;;;;5053632;28;20201;-59
2022/11/24 07:25:22;;;;;;;10.10;4.05;;;7.10;99.90;;;;;;5053529;28;20189;-60
2022/11/24 07:27:49;;;;;;;7.65;4.90;;;7.20;99.90;;;;;;5053727;28;20201;-59
2022/11/24 07:30:17;;;;;;;11.88;5.45;;;7.20;99.90;;;;;;5054046;28;20217;-60
2022/11/24 07:32:43;;;;;;;10.63;4.75;;;7.20;99.90;;;;;;5053421;28;20201;-59
2022/11/24 07:35:11;;;;;;;8.35;3.72;;;7.30;99.90;;;;;;5052902;28;20599;-58
2022/11/24 07:37:38;;;;;;;8.43;4.20;;;7.30;99.90;;;;;;5053263;28;20198;-60
2022/11/24 07:40:06;;;;;;;7.97;4.40;;;7.30;99.90;;;;;;5053380;28;20201;-58
2022/11/24 07:42:33;;;;;;;11.95;4.68;;;7.20;99.90;;;;;;5052849;28;20236;-58
2022/11/24 07:45:00;;;;;;;7.32;3.20;;;7.20;99.90;;;;;;5052886;28;20222;-59
2022/11/24 07:47:27;;;;;;;5.72;4.03;;;7.20;99.90;;;;;;5053122;28;20202;-60
2022/11/24 07:49:54;;;;;;;8.80;4.82;;;7.20;99.90;;;;;;5052834;28;20224;-61
2022/11/24 07:52:25;;;;;;;8.23;3.92;;;7.20;99.90;;;;;;5052881;28;20217;-57
2022/11/24 07:54:52;;;;;;;13.10;4.40;;;7.20;99.90;;;;;;5052515;28;20737;-58
2022/11/24 07:57:18;;;;;;;7.95;4.05;;;7.20;99.90;;;;;;5053212;28;20198;-58
2022/11/24 07:59:56;;;;;;;13.52;4.88;;;7.30;99.90;;;;;;5054896;28;20204;-59
2022/11/24 08:02:24;;;;;;;5.85;3.28;;;7.30;99.90;;;;;;5055225;28;20205;-60
2022/11/24 08:04:50;;;;;;;11.35;3.80;;;7.40;99.90;;;;;;5054331;28;20225;-61
2022/11/24 08:07:17;;;;;;;8.23;4.72;;;7.40;99.90;;;;;;5053030;28;20656;-60
2022/11/24 08:09:45;;;;;;;11.18;3.92;;;7.40;99.90;;;;;;5054187;28;20225;-60
2022/11/24 08:12:12;;;;;;;7.05;3.92;;;7.40;99.90;;;;;;5053080;28;20205;-59
2022/11/24 08:14:39;;;;;;;8.20;4.28;;;7.40;99.90;;;;;;5052985;28;20259;-60
2022/11/24 08:17:05;;;;;;;9.18;3.47;;;7.40;99.90;;;;;;5052830;28;20202;-60
2022/11/24 08:19:33;;;;;;;9.20;3.78;;;7.50;99.90;;;;;;5053102;28;20198;-60
2022/11/24 08:22:00;;;;;;;9.05;3.55;;;7.50;99.90;;;;;;5053183;28;20209;-60
2022/11/24 08:24:27;;;;;;;13.98;4.30;;;7.50;99.90;;;;;;5052842;28;20229;-58
2022/11/24 08:26:55;;;;;;;6.85;3.20;;;7.60;99.90;;;;;;5052731;28;20217;-59
2022/11/24 08:29:22;;;;;;;7.32;3.20;;;7.70;99.90;;;;;;5052814;28;20202;-60
2022/11/24 08:31:49;;;;;;;5.43;3.70;;;7.70;99.90;;;;;;5052338;28;20205;-59
2022/11/24 08:34:15;;;;;;;8.05;3.40;;;7.70;99.90;;;;;;5052651;28;20222;-60
2022/11/24 08:36:42;;;;;;;7.15;3.85;;;7.70;99.90;;;;;;5052700;28;20202;-59
2022/11/24 08:39:11;;;;;;;11.02;4.28;;;7.70;99.90;;;;;;5052431;28;20197;-59
2022/11/24 08:41:38;;;;;;;11.27;3.60;;;7.70;99.90;;;;;;5052498;28;20201;-60
2022/11/24 08:44:09;;;;;;;7.40;4.07;;;7.80;99.90;;;;;;5052261;28;20229;-61
2022/11/24 08:46:36;;;;;;;9.15;3.72;;;7.80;99.90;;;;;;5052946;28;20239;-60
2022/11/24 08:49:04;;;;;;;8.23;3.60;;;7.90;99.90;;;;;;5052131;28;20300;-60
2022/11/24 08:51:30;;;;;;;5.50;3.88;;;7.90;99.90;;;;;;5052346;28;20225;-59
2022/11/24 08:53:58;;;;;;;7.10;3.97;;;8.00;99.90;;;;;;5052773;28;20221;-58
2022/11/24 08:56:26;;;;;;;5.18;3.17;;;8.10;99.90;;;;;;5054433;28;20213;-60
2022/11/24 08:58:53;;;;;;;6.68;3.30;;;8.20;99.90;;;;;;5055649;28;20653;-59
2022/11/24 09:01:22;;;;;;;11.38;4.15;;;8.30;99.90;;;;;;5056151;28;20194;-60
2022/11/24 09:03:50;;;;;;;5.13;3.42;;;8.30;99.90;;;;;;5055812;28;20233;-60
2022/11/24 09:06:18;;;;;;;6.53;3.20;;;8.40;99.90;;;;;;5056181;28;20224;-58
2022/11/24 09:08:45;;;;;;;7.05;3.00;;;8.50;99.90;;;;;;5055860;28;20220;-60
2022/11/24 09:11:14;;;;;;;8.75;3.67;;;8.60;99.90;;;;;;5055908;28;20227;-60
2022/11/24 09:13:41;;;;;;;6.43;3.00;;;8.70;99.90;;;;;;5055521;28;20226;-60
2022/11/24 09:16:13;;;;;;;7.57;3.80;;;8.70;99.90;;;;;;5055765;28;20206;-61
2022/11/24 09:18:41;;;;;;;11.13;3.60;;;8.90;99.90;;;;;;5055794;28;20646;-61
2022/11/24 09:21:09;;;;;;;8.68;3.88;;;9.10;99.90;;;;;;5056168;28;20205;-59
2022/11/24 09:23:36;;;;;;;8.02;3.78;;;9.30;99.90;;;;;;5055820;28;20257;-61
2022/11/24 09:26:05;;;;;;;5.88;2.47;;;9.50;99.90;;;;;;5056085;28;20275;-61
2022/11/24 09:28:32;;;;;;;7.93;3.50;;;9.70;99.90;;;;;;5055174;28;20206;-60
2022/11/24 09:31:01;;;;;;;12.27;5.88;;;9.90;99.90;;;;;;5056014;28;20218;-60
2022/11/24 09:33:28;;;;;;;7.80;2.43;;;10.00;99.90;;;;;;5054973;28;20588;-60
2022/11/24 09:35:56;;;;;;;15.65;3.95;;;10.10;99.90;;;;;;5055755;28;20443;-61
2022/11/24 09:38:23;;;;;;;6.90;2.95;;;10.00;99.90;;;;;;5055528;28;20201;-60
2022/11/24 09:40:50;;;;;;;9.60;3.20;;;10.10;99.90;;;;;;5055985;28;20213;-60
2022/11/24 09:43:28;;;;;;;14.52;3.30;;;10.10;99.90;;;;;;5055394;28;20830;-60
2022/11/24 09:46:03;;;;;;;7.45;4.30;;;10.10;99.90;;;;;;5055147;28;20200;-59
2022/11/24 09:48:34;;;;;;;7.90;3.00;;;10.00;99.90;;;;;;5055477;28;20202;-60
2022/11/24 09:51:04;;;;;;;10.00;4.07;;;9.90;99.90;;;;;;5056048;28;20464;-59
2022/11/24 09:53:36;;;;;;;6.50;3.22;;;9.90;99.90;;;;;;5054857;28;20460;-59
2022/11/24 09:56:14;;;;;;;8.80;3.90;;;9.80;99.90;;;;;;5055310;28;20561;-60
2022/11/24 09:58:45;;;;;;;8.45;4.28;;;9.80;99.90;;;;;;5055299;28;20190;-58
2022/11/24 10:01:16;;;;;;;11.27;4.40;;;9.70;99.90;;;;;;5055178;28;20219;-59
2022/11/24 10:03:45;;;;;;;10.02;3.65;;;9.70;99.90;;;;;;5054695;28;20221;-59
2022/11/24 10:06:23;;;;;;;11.43;4.00;;;9.70;99.90;;;;;;5054311;28;20581;-59
2022/11/24 10:09:44;;;;;;;6.97;3.60;;;9.70;99.90;;;;;;5054687;28;20190;-59
2022/11/24 10:12:23;;;;;;;11.90;3.45;;;9.60;99.90;;;;;;4992811;28;20878;-58
2022/11/24 10:15:20;;;;;;;10.90;4.22;;;9.60;99.90;;;;;;4992762;28;20239;-60
2022/11/24 10:18:11;;;;;;;9.20;3.45;;;9.60;99.90;;;;;;5047919;28;20235;-59
2022/11/24 10:20:50;;;;;;;8.02;4.65;;;9.60;99.90;;;;;;5055490;28;20200;-59
2022/11/24 10:25:59;;;;;;;9.30;3.85;;;9.90;99.90;;;;;;5014680;28;20687;-62
2022/11/24 10:28:32;;;;;;;11.50;4.82;;;10.00;99.90;;;;;;5015674;28;20199;-62
2022/11/24 10:31:11;;;;;;;13.38;4.63;;;10.00;99.90;;;;;;5017641;28;20266;-62
2022/11/24 10:33:38;;;;;;;12.57;5.43;;;10.10;99.90;;;;;;5015283;28;20566;-61
2022/11/24 10:36:10;;;;;;;12.25;5.28;;;10.20;99.90;;;;;;5015233;28;20203;-61
2022/11/24 10:38:44;;;;;;;7.80;3.30;;;10.30;99.90;;;;;;5014741;28;20191;-60
2022/11/24 10:41:17;;;;;;;6.00;3.33;;;10.50;99.90;;;;;;5015056;28;20526;-60
2022/11/24 10:43:43;;;;;;;12.87;3.30;;;10.50;99.90;;;;;;5014495;28;20755;-61
2022/11/24 10:46:14;;;;;;;6.57;2.60;;;10.70;99.90;;;;;;5014705;28;20965;-61
2022/11/24 10:48:46;;;;;;;8.97;3.20;;;10.80;99.90;;;;;;5014237;28;20981;-62
2022/11/24 10:51:32;;;;;;;5.63;2.50;;;10.90;99.90;;;;;;5015471;28;20828;-61
2022/11/24 10:54:05;;;;;;;9.60;3.07;;;11.00;99.90;;;;;;5016266;28;20878;-61
2022/11/24 10:56:40;;;;;;;7.10;2.60;;;11.10;99.90;;;;;;5016201;28;20431;-61
2022/11/24 10:59:27;;;;;;;7.57;3.30;;;11.20;99.90;;;;;;5014383;28;20501;-62
2022/11/24 11:01:54;;;;;;;9.97;3.50;;;11.30;99.90;;;;;;5018374;28;20767;-61
2022/11/24 11:04:24;;;;;;;12.93;3.47;;;11.30;99.90;;;;;;5018018;28;20470;-61
2022/11/24 11:06:51;;;;;;;12.17;3.57;;;11.40;99.90;;;;;;5016147;28;20438;-63
2022/11/24 11:09:20;;;;;;;7.60;3.83;;;11.60;99.90;;;;;;5014998;28;20938;-62
2022/11/24 11:11:49;;;;;;;8.00;3.83;;;11.70;99.90;;;;;;5015282;28;20818;-62
2022/11/24 11:14:30;;;;;;;12.07;4.10;;;11.80;99.90;;;;;;5015100;28;20537;-61
2022/11/24 11:16:57;;;;;;;9.23;3.23;;;12.10;99.90;;;;;;5015261;28;20438;-61
2022/11/24 11:19:36;;;;;;;7.27;3.30;;;12.20;99.90;;;;;;5014492;28;20522;-62
2022/11/24 11:22:05;;;;;;;12.67;4.00;;;12.30;99.90;;;;;;5014703;28;20438;-60
2022/11/24 11:24:32;;;;;;;13.90;3.33;;;12.40;99.90;;;;;;5023288;28;20837;-61
2022/11/24 11:27:04;;;;;;;8.67;3.70;;;12.40;99.90;;;;;;5033945;28;20448;-60
2022/11/24 11:29:31;;;;;;;10.47;3.77;;;12.40;99.90;;;;;;5035060;28;20433;-62
2022/11/24 11:32:01;;;;;;;5.03;2.83;;;12.30;99.90;;;;;;5034178;28;20491;-62
2022/11/24 11:34:34;;;;;;;15.83;3.53;;;12.20;99.90;;;;;;5034426;28;20572;-61
2022/11/24 11:37:03;;;;;;;7.73;3.87;;;12.10;99.90;;;;;;5035404;28;20463;-60
2022/11/24 11:39:33;;;;;;;11.33;3.17;;;12.00;99.90;;;;;;5033992;28;20936;-61
2022/11/24 11:42:17;;;;;;;7.73;3.17;;;11.90;99.90;;;;;;5034235;28;20449;-62
2022/11/24 11:44:48;;;;;;;7.30;3.10;;;11.90;99.90;;;;;;5034585;28;20465;-61
2022/11/24 11:47:24;;;;;;;6.30;3.23;;;11.80;99.90;;;;;;5034572;28;20425;-60
2022/11/24 11:49:51;;;;;;;9.23;4.00;;;11.80;99.90;;;;;;5036956;28;20526;-63
2022/11/24 11:52:54;;;;;;;13.10;4.40;;;11.70;99.90;;;;;;5036026;28;20477;-62
2022/11/24 11:55:37;;;;;;;17.70;5.80;;;11.70;99.90;;;;;;5035461;28;20461;-61
2022/11/24 11:58:22;;;;;;;10.20;4.90;;;11.60;99.90;;;;;;5034506;28;20488;-62
2022/11/24 12:00:54;;;;;;;7.60;4.00;;;11.50;99.90;;;;;;5033923;28;20431;-61
2022/11/24 12:03:50;;;;;;;12.93;4.60;;;11.50;99.90;;;;;;5034247;28;20467;-63
2022/11/24 12:06:28;;;;;;;8.17;3.80;;;11.50;99.90;;;;;;5033989;28;20433;-63
2022/11/24 12:09:06;;;;;;;7.77;4.63;;;11.50;99.90;;;;;;5034862;28;20509;-61
2022/11/24 12:11:40;;;;;;;15.00;7.93;;;11.50;99.90;;;;;;5033875;28;20475;-62
2022/11/24 12:14:21;;;;;;;19.50;6.83;;;11.50;99.90;;;;;;5033706;28;20495;-61
2022/11/24 12:17:00;;;;;;;17.90;7.57;;;11.50;99.90;;;;;;5033297;28;20425;-62
2022/11/24 12:19:48;;;;;;;12.07;6.80;;;11.60;99.90;;;;;;5033368;28;20425;-62
2022/11/24 12:22:24;;;;;;;11.17;5.80;;;11.60;99.90;;;;;;5033485;28;20429;-62
2022/11/24 12:24:57;;;;;;;7.63;4.20;;;11.60;99.90;;;;;;5032665;28;20883;-62
2022/11/24 12:27:32;;;;;;;7.53;4.17;;;11.50;99.90;;;;;;5033133;28;20436;-62
2022/11/24 12:30:12;;;;;;;6.80;3.40;;;11.50;99.90;;;;;;5033298;28;20433;-61
2022/11/24 12:32:59;;;;;;;7.40;3.37;;;11.50;99.90;;;;;;5036874;28;20469;-62
2022/11/24 12:35:33;;;;;;;9.17;4.77;;;11.50;99.90;;;;;;5036346;28;20948;-62
2022/11/24 12:38:21;;;;;;;7.57;3.23;;;11.50;99.90;;;;;;5036943;28;20448;-61
2022/11/24 12:41:07;;;;;;;6.53;2.80;;;11.50;99.60;;;;;;5037121;28;20429;-62
2022/11/24 12:43:36;;;;;;;7.10;2.60;;;11.50;99.30;;;;;;5036596;28;20425;-62
2022/11/24 12:46:13;;;;;;;3.27;2.70;;;11.40;99.20;;;;;;5036425;28;20502;-62
2022/11/24 12:48:49;;;;;;;6.57;2.70;;;11.50;99.20;;;;;;5036840;28;20452;-62
2022/11/24 12:51:18;;;;;;;6.50;3.17;;;11.50;99.00;;;;;;5036707;28;20464;-62
2022/11/24 12:53:47;;;;;;;5.40;2.60;;;11.50;98.90;;;;;;5037984;28;20468;-61
2022/11/24 12:56:16;;;;;;;5.87;3.20;;;11.60;98.80;;;;;;5036103;28;20449;-61
2022/11/24 12:58:50;;;;;;;10.20;3.10;;;11.60;98.70;;;;;;5036016;28;20456;-62
2022/11/24 13:01:28;;;;;;;8.17;3.20;;;11.60;98.60;;;;;;5036125;28;20444;-63
2022/11/24 13:04:07;;;;;;;4.43;3.10;;;11.60;98.60;;;;;;5035899;28;20976;-60
2022/11/24 13:06:44;;;;;;;5.03;2.90;;;11.50;98.30;;;;;;5036297;28;20528;-62
2022/11/24 13:09:13;;;;;;;3.63;2.53;;;11.40;98.10;;;;;;5036096;28;20455;-61
2022/11/24 13:11:42;;;;;;;4.13;2.50;;;11.30;98.00;;;;;;5035974;28;20492;-63
2022/11/24 13:14:18;;;;;;;4.40;2.70;;;11.30;98.00;;;;;;5035720;28;20465;-62